This is the latest recevied weather packets stored in our database for station/object N3AVN. If no packets are shown the sender has not sent any weather packets the latest 1 day(s).
| Time | Temp. | Humidity | Pressure | Rain* | Wind** | Luminosity | Snow |
|---|---|---|---|---|---|---|---|
| 1778002285 | 26.67° C | 46% | 1006.3 hPa | 0 mm | 1.34 m/s, 55° | 670 W/m² | - |
| 1778001983 | 26.67° C | 46% | 1006.2 hPa | 0 mm | 2.24 m/s, 143° | 705 W/m² | - |
| 1778001680 | 26.67° C | 48% | 1006.4 hPa | 0 mm | 0 m/s | 714 W/m² | - |
| 1778001375 | 26.67° C | 46% | 1006.5 hPa | 0 mm | 0.89 m/s, 233° | 708 W/m² | - |
| 1778001072 | 26.67° C | 46% | 1006.4 hPa | 0 mm | 4.92 m/s, 240° | 640 W/m² | - |
| 1778000770 | 26.11° C | 46% | 1006.6 hPa | 0 mm | 1.34 m/s, 305° | 645 W/m² | - |
| 1778000466 | 26.11° C | 48% | 1006.5 hPa | 0 mm | 0.89 m/s, 71° | 716 W/m² | - |
| 1778000161 | 25.56° C | 49% | 1006.6 hPa | 0 mm | 0.89 m/s, 11° | 694 W/m² | - |
| 1777999857 | 25.56° C | 49% | 1006.7 hPa | 0 mm | 2.68 m/s, 117° | 678 W/m² | - |
| 1777999553 | 25.56° C | 49% | 1007.1 hPa | 0 mm | 1.34 m/s, 22° | 706 W/m² | - |
| 1777999251 | 26.11° C | 48% | 1006.6 hPa | 0 mm | 2.24 m/s, 238° | 630 W/m² | - |
| 1777998949 | 26.11° C | 48% | 1006.9 hPa | 0 mm | 1.79 m/s, 111° | 657 W/m² | - |
| 1777998645 | 25.56° C | 49% | 1007.2 hPa | 0 mm | 2.24 m/s, 217° | 686 W/m² | - |
| 1777998344 | 25° C | 52% | 1007 hPa | 0 mm | 1.34 m/s, 83° | 688 W/m² | - |
| 1777998041 | 25.56° C | 49% | 1007.3 hPa | 0 mm | 2.24 m/s, 220° | 706 W/m² | - |
| 1777997737 | 25° C | 51% | 1007.6 hPa | 0 mm | 1.79 m/s, 160° | 391 W/m² | - |
| 1777997435 | 25° C | 50% | 1007.5 hPa | 0 mm | 1.79 m/s, 327° | 711 W/m² | - |
| 1777997133 | 24.44° C | 51% | 1007.6 hPa | 0 mm | 1.79 m/s, 207° | 604 W/m² | - |
| 1777996830 | 24.44° C | 51% | 1007.7 hPa | 0 mm | 2.24 m/s, 217° | 741 W/m² | - |
| 1777996525 | 24.44° C | 52% | 1007.8 hPa | 0 mm | 3.13 m/s, 86° | 668 W/m² | - |
| 1777996222 | 23.89° C | 52% | 1007.6 hPa | 0 mm | 2.24 m/s, 152° | 590 W/m² | - |
| 1777995913 | 23.89° C | 53% | 1007.8 hPa | 0 mm | 1.79 m/s, 157° | 664 W/m² | - |
| 1777995609 | 24.44° C | 53% | 1008 hPa | 0 mm | 2.24 m/s, 225° | 639 W/m² | - |
| 1777995307 | 23.33° C | 55% | 1008 hPa | 0 mm | 1.79 m/s, 90° | 703 W/m² | - |
| 1777995004 | 23.33° C | 55% | 1008 hPa | 0 mm | 1.79 m/s, 137° | 612 W/m² | - |
* Rain latest hour (hover to see other rain measurements)
** Current wind speed in m/s (hover to see current wind gust speed)